Time;durP1;ratioP1;P1;durP2;ratioP2;P2;SDS_P1;SDS_P2;PMS_P1;PMS_P2;Temp;Humidity;BMP_temperature;BMP_pressure;BME280_temperature;BME280_humidity;BME280_pressure;Samples;Min_cycle;Max_cycle;Signal;HPM_P1;HPM_P2
2023/11/27 00:01:46;;;;;;;7.72;2.20;;;;;;;;;;5037713;28;20056;-75
2023/11/27 00:04:17;;;;;;;8.55;3.25;;;;;;;;;;5039443;28;20053;-75
2023/11/27 00:07:20;;;;;;;5.55;1.80;;;;;;;;;;5039415;28;20057;-75
2023/11/27 00:09:50;;;;;;;8.85;2.13;;;;;;;;;;5038986;28;21122;-74
2023/11/27 00:12:21;;;;;;;6.78;2.15;;;;;;;;;;5040025;28;20558;-74
2023/11/27 00:14:52;;;;;;;12.20;2.08;;;;;;;;;;5038109;28;20052;-74
2023/11/27 00:17:21;;;;;;;11.38;2.00;;;;;;;;;;5039005;28;20045;-77
2023/11/27 00:19:52;;;;;;;8.80;1.92;;;;;;;;;;5039585;28;20045;-75
2023/11/27 00:22:23;;;;;;;6.47;1.98;;;;;;;;;;5038758;28;20496;-74
2023/11/27 00:24:54;;;;;;;5.43;1.80;;;;;;;;;;5039728;28;20057;-74
2023/11/27 00:27:24;;;;;;;7.32;2.00;;;;;;;;;;5039281;28;20079;-75
2023/11/27 00:29:53;;;;;;;9.23;2.67;;;;;;;;;;5039274;28;20052;-75
2023/11/27 00:32:24;;;;;;;6.60;2.47;;;;;;;;;;5039216;28;20045;-74
2023/11/27 00:34:54;;;;;;;6.80;2.03;;;;;;;;;;5039728;28;20053;-75
2023/11/27 00:37:24;;;;;;;8.95;2.22;;;;;;;;;;5038976;28;20061;-75
2023/11/27 00:39:54;;;;;;;9.32;2.70;;;;;;;;;;5040464;28;20041;-75
2023/11/27 00:42:25;;;;;;;7.20;2.78;;;;;;;;;;5041275;28;20499;-75
2023/11/27 00:44:55;;;;;;;7.97;2.60;;;;;;;;;;5042799;28;20527;-75
2023/11/27 00:47:27;;;;;;;6.47;2.20;;;;;;;;;;5041348;28;20060;-75
2023/11/27 00:49:57;;;;;;;6.60;2.70;;;;;;;;;;5041441;28;20044;-75
2023/11/27 00:52:28;;;;;;;7.95;2.40;;;;;;;;;;5042677;28;20041;-75
2023/11/27 00:54:58;;;;;;;4.85;2.17;;;;;;;;;;5041240;28;20063;-75
2023/11/27 00:57:28;;;;;;;7.03;1.92;;;;;;;;;;5042921;28;20041;-74
2023/11/27 01:00:00;;;;;;;4.20;2.10;;;;;;;;;;5042996;28;20045;-75
2023/11/27 01:03:34;;;;;;;7.82;2.20;;;;;;;;;;5040961;28;20052;-75
2023/11/27 01:06:12;;;;;;;6.53;2.30;;;;;;;;;;5042589;28;20051;-75
2023/11/27 01:08:45;;;;;;;5.57;2.08;;;;;;;;;;5042157;28;20753;-74
2023/11/27 01:11:15;;;;;;;7.15;2.67;;;;;;;;;;5039629;28;20056;-75
2023/11/27 01:13:48;;;;;;;7.85;2.63;;;;;;;;;;5040231;28;20064;-75
2023/11/27 01:16:18;;;;;;;8.30;2.30;;;;;;;;;;5040072;28;20060;-75
2023/11/27 01:19:31;;;;;;;6.35;1.88;;;;;;;;;;5040273;28;20064;-75
2023/11/27 01:22:03;;;;;;;6.68;2.00;;;;;;;;;;5041971;28;20061;-75
2023/11/27 01:24:34;;;;;;;8.82;2.22;;;;;;;;;;5042199;28;20072;-74
2023/11/27 01:27:05;;;;;;;5.18;2.58;;;;;;;;;;5042168;28;20045;-75
2023/11/27 01:29:34;;;;;;;10.65;2.20;;;;;;;;;;5040564;28;20148;-74
2023/11/27 01:32:07;;;;;;;4.80;2.60;;;;;;;;;;5042479;28;20045;-74
2023/11/27 01:34:40;;;;;;;9.30;2.75;;;;;;;;;;5042111;28;20056;-74
2023/11/27 01:37:10;;;;;;;9.93;2.25;;;;;;;;;;5042519;28;20053;-74
2023/11/27 01:39:40;;;;;;;5.45;2.08;;;;;;;;;;5042703;28;20491;-74
2023/11/27 01:42:11;;;;;;;8.15;2.63;;;;;;;;;;5041858;28;20053;-74
2023/11/27 01:44:42;;;;;;;6.43;2.30;;;;;;;;;;5041388;28;20930;-74
2023/11/27 01:47:13;;;;;;;10.73;2.13;;;;;;;;;;5042088;28;20515;-74
2023/11/27 01:49:45;;;;;;;5.93;1.90;;;;;;;;;;5042045;28;20488;-74
2023/11/27 01:52:16;;;;;;;8.10;2.20;;;;;;;;;;5042042;28;20052;-74
2023/11/27 01:54:47;;;;;;;4.00;1.83;;;;;;;;;;5041602;28;20049;-74
2023/11/27 01:57:20;;;;;;;8.35;2.38;;;;;;;;;;5041280;28;20503;-74
2023/11/27 01:59:55;;;;;;;6.53;2.30;;;;;;;;;;5040488;28;20610;-74
2023/11/27 02:02:25;;;;;;;7.80;2.30;;;;;;;;;;5040380;28;20064;-74
2023/11/27 02:04:56;;;;;;;8.60;2.00;;;;;;;;;;5024270;28;20065;-74
2023/11/27 02:07:27;;;;;;;4.00;1.67;;;;;;;;;;5041366;28;20401;-74
2023/11/27 02:09:57;;;;;;;5.53;2.03;;;;;;;;;;5039310;28;20416;-74
2023/11/27 02:12:28;;;;;;;3.30;1.73;;;;;;;;;;5041788;28;20059;-74
2023/11/27 02:14:59;;;;;;;11.80;1.88;;;;;;;;;;5039531;28;20049;-74
2023/11/27 02:17:30;;;;;;;8.63;2.10;;;;;;;;;;5041304;28;20048;-74
2023/11/27 02:20:00;;;;;;;2.33;1.50;;;;;;;;;;5039173;28;20044;-74
2023/11/27 02:22:30;;;;;;;11.93;2.08;;;;;;;;;;5040305;28;20394;-74
2023/11/27 02:25:00;;;;;;;6.38;2.20;;;;;;;;;;5039874;28;20053;-74
2023/11/27 02:27:31;;;;;;;3.45;1.70;;;;;;;;;;5040684;28;20060;-74
2023/11/27 02:30:02;;;;;;;3.80;1.80;;;;;;;;;;5041442;28;20052;-74
2023/11/27 02:32:32;;;;;;;7.07;1.48;;;;;;;;;;5041307;28;20053;-74
2023/11/27 02:35:03;;;;;;;5.45;2.22;;;;;;;;;;5039845;28;20401;-74
2023/11/27 02:37:34;;;;;;;6.22;1.58;;;;;;;;;;5041064;28;20056;-74
2023/11/27 02:40:05;;;;;;;3.10;1.50;;;;;;;;;;5040566;28;20052;-74
2023/11/27 02:42:36;;;;;;;6.68;1.90;;;;;;;;;;5039606;28;20063;-74
2023/11/27 02:45:07;;;;;;;6.57;2.10;;;;;;;;;;5040696;28;20060;-74
2023/11/27 02:47:39;;;;;;;4.90;1.35;;;;;;;;;;5040749;28;20518;-74
2023/11/27 02:50:09;;;;;;;3.70;1.55;;;;;;;;;;5040873;28;20064;-75
2023/11/27 02:52:41;;;;;;;6.20;2.00;;;;;;;;;;5039711;28;20737;-74
2023/11/27 02:55:11;;;;;;;5.22;1.70;;;;;;;;;;5040742;28;20100;-74
2023/11/27 02:57:42;;;;;;;7.63;1.98;;;;;;;;;;5040521;28;20053;-74
2023/11/27 03:00:15;;;;;;;2.50;1.70;;;;;;;;;;5040095;28;20063;-74
2023/11/27 03:02:46;;;;;;;4.95;1.45;;;;;;;;;;5040218;28;20061;-74
2023/11/27 03:05:16;;;;;;;3.42;1.30;;;;;;;;;;5039381;28;20057;-74
2023/11/27 03:07:47;;;;;;;3.45;1.70;;;;;;;;;;5040346;28;20064;-75
2023/11/27 03:10:18;;;;;;;4.35;1.20;;;;;;;;;;5040712;28;20056;-74
2023/11/27 03:12:48;;;;;;;7.97;1.60;;;;;;;;;;5039937;28;20052;-74
2023/11/27 03:15:20;;;;;;;3.47;1.75;;;;;;;;;;5040440;28;20507;-74
2023/11/27 03:17:52;;;;;;;1.40;1.10;;;;;;;;;;5040108;28;20045;-74
2023/11/27 03:20:22;;;;;;;3.00;1.58;;;;;;;;;;5039879;28;20045;-74
2023/11/27 03:22:53;;;;;;;4.35;1.80;;;;;;;;;;5040286;28;20053;-74
2023/11/27 03:25:22;;;;;;;6.18;1.50;;;;;;;;;;5040370;28;20055;-74
2023/11/27 03:27:53;;;;;;;3.45;1.52;;;;;;;;;;5040372;28;20512;-74
2023/11/27 03:30:28;;;;;;;3.60;1.00;;;;;;;;;;5040472;28;20049;-74
2023/11/27 03:32:59;;;;;;;2.33;1.65;;;;;;;;;;5040098;28;20049;-74
2023/11/27 03:35:29;;;;;;;6.88;1.30;;;;;;;;;;5039244;28;20512;-74
2023/11/27 03:38:00;;;;;;;2.88;1.90;;;;;;;;;;5040417;28;20060;-74
2023/11/27 03:40:31;;;;;;;4.32;2.33;;;;;;;;;;5040192;28;20052;-74
2023/11/27 03:43:02;;;;;;;2.28;1.23;;;;;;;;;;5039893;28;20053;-75
2023/11/27 03:45:35;;;;;;;5.50;1.60;;;;;;;;;;5039686;28;20122;-74
2023/11/27 03:48:06;;;;;;;2.85;1.58;;;;;;;;;;5040140;28;20412;-74
2023/11/27 03:50:37;;;;;;;4.88;1.50;;;;;;;;;;5039674;28;20053;-74
2023/11/27 03:53:08;;;;;;;3.50;1.17;;;;;;;;;;5039823;28;20534;-74
2023/11/27 03:55:39;;;;;;;6.20;1.40;;;;;;;;;;5039320;28;20605;-74
2023/11/27 03:58:09;;;;;;;2.53;1.27;;;;;;;;;;5039682;28;20055;-74
2023/11/27 04:00:40;;;;;;;4.30;1.40;;;;;;;;;;5039331;28;20049;-74
2023/11/27 04:03:11;;;;;;;5.78;1.90;;;;;;;;;;5039090;28;20412;-74
2023/11/27 04:05:41;;;;;;;3.90;1.58;;;;;;;;;;5039919;28;20483;-74
2023/11/27 04:08:11;;;;;;;6.57;1.50;;;;;;;;;;5039200;28;20040;-74
2023/11/27 04:10:42;;;;;;;5.28;1.38;;;;;;;;;;5039159;28;20053;-74
2023/11/27 04:13:12;;;;;;;3.63;1.52;;;;;;;;;;5038233;28;20049;-74
2023/11/27 04:15:44;;;;;;;3.17;1.60;;;;;;;;;;5039558;28;20045;-74
2023/11/27 04:18:14;;;;;;;2.20;1.52;;;;;;;;;;5039338;28;20037;-75
2023/11/27 04:20:45;;;;;;;3.58;1.38;;;;;;;;;;5039886;28;20049;-74
2023/11/27 04:23:17;;;;;;;1.75;1.23;;;;;;;;;;5039468;28;20124;-74
2023/11/27 04:25:47;;;;;;;8.93;2.30;;;;;;;;;;5038139;28;20056;-74
2023/11/27 04:28:16;;;;;;;3.72;1.50;;;;;;;;;;5038928;28;20053;-74
2023/11/27 04:30:47;;;;;;;2.08;1.33;;;;;;;;;;5039062;28;20045;-74
2023/11/27 04:33:18;;;;;;;6.43;1.85;;;;;;;;;;5038728;28;20041;-74
2023/11/27 04:35:51;;;;;;;5.03;1.95;;;;;;;;;;5037968;28;20053;-74
2023/11/27 04:38:23;;;;;;;5.40;1.88;;;;;;;;;;5038707;28;20507;-74
2023/11/27 04:40:53;;;;;;;3.70;1.58;;;;;;;;;;5038874;28;20053;-74
2023/11/27 04:43:25;;;;;;;4.85;1.67;;;;;;;;;;5037287;28;20084;-74
2023/11/27 04:45:56;;;;;;;3.53;2.03;;;;;;;;;;5038594;28;20052;-74
2023/11/27 04:48:26;;;;;;;2.78;1.60;;;;;;;;;;5038983;28;20045;-74
2023/11/27 04:50:56;;;;;;;4.30;1.80;;;;;;;;;;5039238;28;20041;-74
2023/11/27 04:53:27;;;;;;;4.03;1.60;;;;;;;;;;5039041;28;20673;-75
2023/11/27 04:55:58;;;;;;;5.60;1.88;;;;;;;;;;5038104;28;21105;-74
2023/11/27 04:58:28;;;;;;;5.05;1.75;;;;;;;;;;5039145;28;20045;-74
2023/11/27 05:00:59;;;;;;;4.03;2.00;;;;;;;;;;5039784;28;20052;-74
2023/11/27 05:03:29;;;;;;;4.63;1.77;;;;;;;;;;5038967;28;20495;-74
2023/11/27 05:06:00;;;;;;;4.82;1.45;;;;;;;;;;5039427;28;20045;-74
2023/11/27 05:08:32;;;;;;;6.95;1.60;;;;;;;;;;5038716;28;20037;-74
2023/11/27 05:11:02;;;;;;;3.63;2.00;;;;;;;;;;5037237;28;20045;-74
2023/11/27 05:13:32;;;;;;;6.97;1.73;;;;;;;;;;5039285;28;20067;-74
2023/11/27 05:16:03;;;;;;;5.32;1.83;;;;;;;;;;5039116;28;20071;-74
2023/11/27 05:18:33;;;;;;;3.95;1.75;;;;;;;;;;5038807;28;20056;-74
2023/11/27 05:21:05;;;;;;;3.88;1.52;;;;;;;;;;5036899;28;20045;-74
2023/11/27 05:23:36;;;;;;;2.58;1.27;;;;;;;;;;5038738;28;20053;-74
2023/11/27 05:26:09;;;;;;;6.72;1.40;;;;;;;;;;5042223;28;20052;-74
2023/11/27 05:28:40;;;;;;;5.78;1.90;;;;;;;;;;5042408;28;20521;-74
2023/11/27 05:31:10;;;;;;;4.82;2.00;;;;;;;;;;5042451;28;20435;-74
2023/11/27 05:33:42;;;;;;;5.40;2.17;;;;;;;;;;5041952;28;20067;-74
2023/11/27 05:36:12;;;;;;;7.47;1.70;;;;;;;;;;5042473;28;20041;-74
2023/11/27 05:38:42;;;;;;;6.80;2.05;;;;;;;;;;5042159;28;20068;-74
2023/11/27 05:41:12;;;;;;;6.25;2.20;;;;;;;;;;5041940;28;20052;-74
2023/11/27 05:43:43;;;;;;;4.82;2.00;;;;;;;;;;5041887;28;20048;-74
2023/11/27 05:46:18;;;;;;;2.95;1.60;;;;;;;;;;5041475;28;20503;-74
2023/11/27 05:48:48;;;;;;;6.28;1.92;;;;;;;;;;5041876;28;20056;-74
2023/11/27 05:51:18;;;;;;;3.47;1.83;;;;;;;;;;5041538;28;20044;-74
2023/11/27 05:53:48;;;;;;;5.43;2.40;;;;;;;;;;5042030;28;20051;-74
2023/11/27 05:56:19;;;;;;;3.63;2.22;;;;;;;;;;5041779;28;20051;-74
2023/11/27 05:58:50;;;;;;;3.78;2.38;;;;;;;;;;5041695;28;20397;-74
2023/11/27 06:01:21;;;;;;;5.95;1.90;;;;;;;;;;5041717;28;20057;-74
2023/11/27 06:03:51;;;;;;;3.63;1.85;;;;;;;;;;5040281;28;20052;-74
2023/11/27 06:09:25;;;;;;;3.78;1.48;;;;;;;;;;5041484;28;20041;-74
2023/11/27 06:11:57;;;;;;;5.70;2.17;;;;;;;;;;5041753;28;20048;-74
2023/11/27 06:14:27;;;;;;;2.35;1.75;;;;;;;;;;5042179;28;20058;-74
2023/11/27 06:16:58;;;;;;;4.03;2.28;;;;;;;;;;5039852;28;20407;-74
2023/11/27 06:19:29;;;;;;;7.65;1.92;;;;;;;;;;5041245;28;20049;-74
2023/11/27 06:21:59;;;;;;;5.43;2.40;;;;;;;;;;5041355;28;20041;-74
2023/11/27 06:24:30;;;;;;;4.88;2.35;;;;;;;;;;5041322;28;20052;-74
2023/11/27 06:27:00;;;;;;;5.68;2.45;;;;;;;;;;5040989;28;20049;-74
2023/11/27 06:29:31;;;;;;;7.28;2.03;;;;;;;;;;5041109;28;20045;-74
2023/11/27 06:32:01;;;;;;;3.60;2.00;;;;;;;;;;5041000;28;20056;-74
2023/11/27 06:34:32;;;;;;;4.68;2.05;;;;;;;;;;5041210;28;20052;-74
2023/11/27 06:37:02;;;;;;;5.63;2.30;;;;;;;;;;5040221;28;20049;-74
2023/11/27 06:39:32;;;;;;;8.23;2.00;;;;;;;;;;5041284;28;20107;-74
2023/11/27 06:42:05;;;;;;;4.60;2.13;;;;;;;;;;5041058;28;20037;-74
2023/11/27 06:44:36;;;;;;;3.03;1.85;;;;;;;;;;5041086;28;20902;-74
2023/11/27 06:47:06;;;;;;;3.63;1.80;;;;;;;;;;5040958;28;20052;-74
2023/11/27 06:49:37;;;;;;;7.40;2.72;;;;;;;;;;5041078;28;20415;-74
2023/11/27 06:52:07;;;;;;;3.38;1.83;;;;;;;;;;5040854;28;20053;-74
2023/11/27 06:54:37;;;;;;;6.05;1.98;;;;;;;;;;5040190;28;20045;-74
2023/11/27 06:57:39;;;;;;;3.65;2.13;;;;;;;;;;5040998;28;20524;-74
2023/11/27 07:00:10;;;;;;;3.95;2.60;;;;;;;;;;5040846;28;20059;-74
2023/11/27 07:02:41;;;;;;;2.58;1.83;;;;;;;;;;5040381;28;20406;-74
2023/11/27 07:05:11;;;;;;;4.32;2.30;;;;;;;;;;5039036;28;20057;-74
2023/11/27 07:07:42;;;;;;;5.63;1.92;;;;;;;;;;5040300;28;20515;-74
2023/11/27 07:10:13;;;;;;;7.50;1.83;;;;;;;;;;5040395;28;20052;-74
2023/11/27 07:12:44;;;;;;;4.63;2.22;;;;;;;;;;5040128;28;20056;-74
2023/11/27 07:15:14;;;;;;;6.38;2.30;;;;;;;;;;5040506;28;20407;-75
2023/11/27 07:17:46;;;;;;;2.85;1.88;;;;;;;;;;5040195;28;20496;-74
2023/11/27 07:20:20;;;;;;;5.07;2.50;;;;;;;;;;5040217;28;20040;-74
2023/11/27 07:22:50;;;;;;;4.82;2.15;;;;;;;;;;5038967;28;20056;-74
2023/11/27 07:25:20;;;;;;;5.22;2.83;;;;;;;;;;5039893;28;20064;-74
2023/11/27 07:27:52;;;;;;;4.47;2.00;;;;;;;;;;5039959;28;20049;-74
2023/11/27 07:30:22;;;;;;;4.57;1.70;;;;;;;;;;5040169;28;20045;-74
2023/11/27 07:32:53;;;;;;;6.57;2.10;;;;;;;;;;5039718;28;20056;-74
2023/11/27 07:35:24;;;;;;;7.35;2.25;;;;;;;;;;5039913;28;20397;-74
2023/11/27 07:37:55;;;;;;;5.22;2.08;;;;;;;;;;5039710;28;20061;-74
2023/11/27 07:40:25;;;;;;;8.88;2.53;;;;;;;;;;5039639;28;20052;-74
2023/11/27 07:42:55;;;;;;;5.20;1.95;;;;;;;;;;5039140;28;20044;-74
2023/11/27 07:45:25;;;;;;;6.53;2.03;;;;;;;;;;5040162;28;20045;-74
2023/11/27 07:47:56;;;;;;;7.47;2.05;;;;;;;;;;5039665;28;20496;-74
2023/11/27 07:50:31;;;;;;;6.60;2.00;;;;;;;;;;5039480;28;20057;-74
2023/11/27 07:53:01;;;;;;;7.30;2.58;;;;;;;;;;5039702;28;20056;-74
2023/11/27 07:55:32;;;;;;;6.57;2.85;;;;;;;;;;5039795;28;20053;-74
2023/11/27 07:58:03;;;;;;;9.60;2.50;;;;;;;;;;5039649;28;20844;-74
2023/11/27 08:00:33;;;;;;;9.15;2.58;;;;;;;;;;5039805;28;20049;-74
2023/11/27 08:03:04;;;;;;;8.48;2.53;;;;;;;;;;5039221;28;20067;-74
2023/11/27 08:05:35;;;;;;;8.50;2.67;;;;;;;;;;5039658;28;20052;-76
2023/11/27 08:08:08;;;;;;;7.07;2.60;;;;;;;;;;5039790;28;20049;-74
2023/11/27 08:10:39;;;;;;;4.88;2.70;;;;;;;;;;5039826;28;20048;-74
2023/11/27 08:13:09;;;;;;;6.15;2.20;;;;;;;;;;5039370;28;20037;-74
2023/11/27 08:15:39;;;;;;;4.65;3.25;;;;;;;;;;5039384;28;20045;-74
2023/11/27 08:18:11;;;;;;;4.97;2.15;;;;;;;;;;5039208;28;20041;-74
2023/11/27 08:20:43;;;;;;;4.85;2.45;;;;;;;;;;5038889;28;20057;-74
2023/11/27 08:23:13;;;;;;;4.57;2.65;;;;;;;;;;5039071;28;20060;-74
2023/11/27 08:25:44;;;;;;;4.32;2.72;;;;;;;;;;5039002;28;20059;-74
2023/11/27 08:28:15;;;;;;;5.28;2.28;;;;;;;;;;5039388;28;20040;-74
2023/11/27 08:33:48;;;;;;;4.28;2.50;;;;;;;;;;5039502;28;20049;-74
2023/11/27 08:36:27;;;;;;;6.07;2.75;;;;;;;;;;5039257;28;20055;-74
2023/11/27 08:38:58;;;;;;;3.67;2.17;;;;;;;;;;5038772;28;20057;-74
2023/11/27 08:41:30;;;;;;;4.40;2.33;;;;;;;;;;5038936;28;20037;-74
2023/11/27 08:44:00;;;;;;;4.30;2.67;;;;;;;;;;5037008;28;20423;-76
2023/11/27 08:46:31;;;;;;;6.47;2.55;;;;;;;;;;5039238;28;20415;-74
2023/11/27 08:49:03;;;;;;;3.63;2.50;;;;;;;;;;5039010;28;20056;-74
2023/11/27 08:51:34;;;;;;;6.88;2.95;;;;;;;;;;5039085;28;20045;-75
2023/11/27 08:54:04;;;;;;;5.75;2.60;;;;;;;;;;5039215;28;20041;-74
2023/11/27 08:56:35;;;;;;;5.57;2.50;;;;;;;;;;5039014;28;20037;-74
2023/11/27 08:59:05;;;;;;;7.05;3.05;;;;;;;;;;5039189;28;20048;-74
2023/11/27 09:01:36;;;;;;;4.40;2.33;;;;;;;;;;5042779;28;20045;-74
2023/11/27 09:04:08;;;;;;;4.80;2.45;;;;;;;;;;5040677;28;20060;-75
2023/11/27 09:06:39;;;;;;;4.28;3.30;;;;;;;;;;5043280;28;20075;-74
2023/11/27 09:09:09;;;;;;;6.75;2.88;;;;;;;;;;5042496;28;20522;-74
2023/11/27 09:11:40;;;;;;;5.13;2.80;;;;;;;;;;5042811;28;20049;-74
2023/11/27 09:14:11;;;;;;;5.85;2.70;;;;;;;;;;5042905;28;20055;-74
2023/11/27 09:16:41;;;;;;;5.93;2.80;;;;;;;;;;5042160;28;20120;-74
2023/11/27 09:19:12;;;;;;;7.10;2.55;;;;;;;;;;5042673;28;20044;-74
2023/11/27 09:21:42;;;;;;;5.93;3.05;;;;;;;;;;5042519;28;20523;-74
2023/11/27 09:24:13;;;;;;;10.32;3.38;;;;;;;;;;5041635;28;20064;-75
2023/11/27 09:26:43;;;;;;;6.07;2.38;;;;;;;;;;5043148;28;20064;-74
2023/11/27 09:29:13;;;;;;;6.57;3.10;;;;;;;;;;5042725;28;20526;-74
2023/11/27 09:31:44;;;;;;;7.68;2.72;;;;;;;;;;5041691;28;20500;-74
2023/11/27 09:34:15;;;;;;;4.68;2.72;;;;;;;;;;5042346;28;20045;-74
2023/11/27 09:36:45;;;;;;;4.75;2.00;;;;;;;;;;5042335;28;20064;-74
2023/11/27 09:39:30;;;;;;;7.88;2.60;;;;;;;;;;5041494;28;20045;-78
2023/11/27 09:42:00;;;;;;;4.22;2.10;;;;;;;;;;5041902;28;20045;-74
2023/11/27 09:44:32;;;;;;;3.03;2.00;;;;;;;;;;5042276;28;20066;-75
2023/11/27 09:47:03;;;;;;;9.35;2.28;;;;;;;;;;5041861;28;20053;-75
2023/11/27 09:49:37;;;;;;;3.03;1.73;;;;;;;;;;5041789;28;20059;-74
2023/11/27 09:52:15;;;;;;;5.53;2.17;;;;;;;;;;5042071;28;20526;-74
2023/11/27 09:54:57;;;;;;;6.00;2.03;;;;;;;;;;5042257;28;20509;-76
2023/11/27 09:57:59;;;;;;;8.57;2.40;;;;;;;;;;5041638;28;20041;-75
2023/11/27 10:00:31;;;;;;;6.28;2.72;;;;;;;;;;5039680;28;21217;-76
2023/11/27 10:03:03;;;;;;;9.68;3.10;;;;;;;;;;5041732;28;20045;-74
2023/11/27 10:05:37;;;;;;;6.63;2.25;;;;;;;;;;5041794;28;20057;-74
2023/11/27 10:08:11;;;;;;;9.27;2.40;;;;;;;;;;5041524;28;20064;-74
2023/11/27 10:10:44;;;;;;;16.38;3.10;;;;;;;;;;5041362;28;20056;-75
2023/11/27 10:13:18;;;;;;;5.65;2.53;;;;;;;;;;5041782;28;20060;-75
2023/11/27 10:16:09;;;;;;;9.70;3.17;;;;;;;;;;5040943;28;20424;-75
2023/11/27 10:18:40;;;;;;;8.25;2.70;;;;;;;;;;5041431;28;20384;-75
2023/11/27 10:21:15;;;;;;;11.15;2.60;;;;;;;;;;5041169;28;20408;-78
2023/11/27 10:23:46;;;;;;;12.18;1.98;;;;;;;;;;5040668;28;20542;-75
2023/11/27 10:26:20;;;;;;;8.95;1.88;;;;;;;;;;5040930;28;20495;-74
2023/11/27 10:28:57;;;;;;;10.50;2.00;;;;;;;;;;5040135;28;20056;-75
2023/11/27 10:31:30;;;;;;;19.65;6.10;;;;;;;;;;5040596;28;20045;-75
2023/11/27 10:34:32;;;;;;;12.77;2.17;;;;;;;;;;5040357;28;20060;-75
2023/11/27 10:37:04;;;;;;;7.03;1.77;;;;;;;;;;5041097;28;20056;-74
2023/11/27 10:39:35;;;;;;;5.30;1.83;;;;;;;;;;5041721;28;20056;-74
2023/11/27 10:42:07;;;;;;;11.02;1.88;;;;;;;;;;5039772;28;20041;-74
2023/11/27 10:44:40;;;;;;;15.95;2.13;;;;;;;;;;5040403;28;20512;-75
2023/11/27 10:47:11;;;;;;;11.18;2.28;;;;;;;;;;5041215;28;20044;-74
2023/11/27 10:49:43;;;;;;;9.13;2.05;;;;;;;;;;5040817;28;20060;-75
2023/11/27 10:52:14;;;;;;;10.50;1.92;;;;;;;;;;5040342;28;20073;-74
2023/11/27 10:54:48;;;;;;;11.40;1.90;;;;;;;;;;5040584;28;20543;-79
2023/11/27 10:57:20;;;;;;;7.65;1.80;;;;;;;;;;5040608;28;20044;-75
2023/11/27 10:59:51;;;;;;;15.20;1.98;;;;;;;;;;5040584;28;20044;-74
2023/11/27 11:02:23;;;;;;;5.75;1.67;;;;;;;;;;5040507;28;20049;-75
2023/11/27 11:04:55;;;;;;;3.58;1.83;;;;;;;;;;5039908;28;20492;-74
2023/11/27 11:07:36;;;;;;;7.20;1.70;;;;;;;;;;5039328;28;20040;-74
2023/11/27 11:10:12;;;;;;;5.20;1.67;;;;;;;;;;5040670;28;20048;-75
2023/11/27 11:12:43;;;;;;;8.27;1.83;;;;;;;;;;5040289;28;20520;-75
2023/11/27 11:15:20;;;;;;;9.32;1.77;;;;;;;;;;5040462;28;20725;-74
2023/11/27 11:18:10;;;;;;;4.68;1.65;;;;;;;;;;5040560;28;20056;-74
2023/11/27 11:20:57;;;;;;;7.45;1.33;;;;;;;;;;5040089;28;20060;-74
2023/11/27 11:23:40;;;;;;;5.97;1.60;;;;;;;;;;5039520;28;20053;-73
2023/11/27 11:26:40;;;;;;;5.97;1.77;;;;;;;;;;5038269;28;20053;-75
2023/11/27 11:29:16;;;;;;;;;;;;;;;;;;5041029;28;20542;-75
2023/11/27 11:31:58;;;;;;;6.63;1.58;;;;;;;;;;5040012;28;20331;-74
2023/11/27 11:34:41;;;;;;;4.20;1.10;;;;;;;;;;5037633;28;20049;-75
2023/11/27 11:37:14;;;;;;;2.95;1.20;;;;;;;;;;5039042;28;20044;-73
2023/11/27 11:39:46;;;;;;;4.50;1.20;;;;;;;;;;5039916;28;20045;-75
2023/11/27 11:42:20;;;;;;;5.72;1.15;;;;;;;;;;5039218;28;20045;-75
2023/11/27 11:45:27;;;;;;;10.55;1.70;;;;;;;;;;5039816;28;20057;-76
2023/11/27 11:47:58;;;;;;;14.32;1.13;;;;;;;;;;5040029;28;20523;-76
2023/11/27 11:50:33;;;;;;;4.68;1.35;;;;;;;;;;5040014;28;20059;-75
2023/11/27 11:53:18;;;;;;;6.47;1.20;;;;;;;;;;5040009;28;20052;-75
2023/11/27 11:55:53;;;;;;;3.90;1.38;;;;;;;;;;5039416;28;20523;-75
2023/11/27 11:58:23;;;;;;;4.00;0.93;;;;;;;;;;5039940;28;20041;-76
2023/11/27 12:01:01;;;;;;;7.40;1.08;;;;;;;;;;5037983;28;20064;-78
2023/11/27 12:03:33;;;;;;;4.90;1.20;;;;;;;;;;5038575;28;20048;-74
2023/11/27 12:06:13;;;;;;;4.63;1.10;;;;;;;;;;5039446;28;20049;-75
2023/11/27 12:08:47;;;;;;;5.72;1.10;;;;;;;;;;5039620;28;20518;-76
2023/11/27 12:11:17;;;;;;;5.05;1.15;;;;;;;;;;5038992;28;20071;-75
2023/11/27 12:13:47;;;;;;;3.63;1.10;;;;;;;;;;5039525;28;20048;-74
2023/11/27 12:16:21;;;;;;;4.03;1.13;;;;;;;;;;5038886;28;20045;-76
2023/11/27 12:18:54;;;;;;;5.80;1.75;;;;;;;;;;5039733;28;20055;-75
2023/11/27 12:21:28;;;;;;;2.80;1.05;;;;;;;;;;5039450;28;20525;-76
2023/11/27 12:23:59;;;;;;;4.72;1.73;;;;;;;;;;5037660;28;20875;-75
2023/11/27 12:26:31;;;;;;;9.80;1.33;;;;;;;;;;5039553;28;20040;-74
2023/11/27 12:29:01;;;;;;;8.02;1.30;;;;;;;;;;5039693;28;20543;-76
2023/11/27 12:31:31;;;;;;;5.32;1.20;;;;;;;;;;5039613;28;20056;-80
2023/11/27 12:34:03;;;;;;;5.57;1.30;;;;;;;;;;5038956;28;20400;-76
2023/11/27 12:37:34;;;;;;;2.90;1.10;;;;;;;;;;5043006;28;20045;-75
2023/11/27 12:40:08;;;;;;;3.85;1.20;;;;;;;;;;5043654;28;20048;-78
2023/11/27 12:42:40;;;;;;;6.35;2.58;;;;;;;;;;5043070;28;20049;-76
2023/11/27 12:45:21;;;;;;;5.43;1.35;;;;;;;;;;5042807;28;20065;-76
2023/11/27 12:50:57;;;;;;;5.80;1.38;;;;;;;;;;5044028;28;20081;-75
2023/11/27 12:53:28;;;;;;;2.03;1.02;;;;;;;;;;5046598;28;20033;-75
2023/11/27 12:55:59;;;;;;;10.02;1.60;;;;;;;;;;5045858;28;20056;-76
2023/11/27 12:58:29;;;;;;;2.05;1.10;;;;;;;;;;5045730;28;20535;-76
2023/11/27 13:01:00;;;;;;;1.83;0.80;;;;;;;;;;5044399;28;20045;-75
2023/11/27 13:03:31;;;;;;;2.40;1.10;;;;;;;;;;5045988;28;20052;-76
2023/11/27 13:06:01;;;;;;;8.18;1.50;;;;;;;;;;5045879;28;20396;-75
2023/11/27 13:08:34;;;;;;;4.22;1.15;;;;;;;;;;5045617;28;20049;-78
2023/11/27 13:11:06;;;;;;;4.68;1.30;;;;;;;;;;5045471;28;20048;-75
2023/11/27 13:13:36;;;;;;;3.85;1.30;;;;;;;;;;5045253;28;20810;-76
2023/11/27 13:16:09;;;;;;;7.75;1.20;;;;;;;;;;5045914;28;20502;-81
2023/11/27 13:18:40;;;;;;;2.47;1.10;;;;;;;;;;5044220;28;20064;-75
2023/11/27 13:21:11;;;;;;;2.85;1.00;;;;;;;;;;5043747;28;20159;-76
2023/11/27 13:23:43;;;;;;;4.78;1.02;;;;;;;;;;5044501;28;20052;-77
2023/11/27 13:26:27;;;;;;;2.88;1.02;;;;;;;;;;5043999;28;20057;-74
2023/11/27 13:29:00;;;;;;;3.97;1.13;;;;;;;;;;5045433;28;20052;-75
2023/11/27 13:31:33;;;;;;;2.40;1.13;;;;;;;;;;5045403;28;20049;-75
2023/11/27 13:34:32;;;;;;;5.25;1.92;;;;;;;;;;5045478;28;20123;-77
2023/11/27 13:37:07;;;;;;;10.10;6.13;;;;;;;;;;5044507;28;20049;-78
2023/11/27 13:39:41;;;;;;;2.60;1.20;;;;;;;;;;5044973;28;20049;-74
2023/11/27 13:42:14;;;;;;;4.93;1.30;;;;;;;;;;5045766;28;20045;-74
2023/11/27 13:44:45;;;;;;;6.18;1.60;;;;;;;;;;5045461;28;20423;-76
2023/11/27 13:47:22;;;;;;;5.47;1.60;;;;;;;;;;5042927;28;20404;-75
2023/11/27 13:49:55;;;;;;;2.63;1.05;;;;;;;;;;5043582;28;20060;-76
2023/11/27 13:52:31;;;;;;;1.90;0.90;;;;;;;;;;5045419;28;20080;-75
2023/11/27 13:55:03;;;;;;;3.45;0.77;;;;;;;;;;5044760;28;20093;-75
2023/11/27 13:57:36;;;;;;;6.55;2.85;;;;;;;;;;5044131;28;20052;-76
2023/11/27 14:00:19;;;;;;;1.75;1.00;;;;;;;;;;5044866;28;20044;-75
2023/11/27 14:02:53;;;;;;;3.78;1.13;;;;;;;;;;5044526;28;20048;-76
2023/11/27 14:05:25;;;;;;;6.07;1.05;;;;;;;;;;5044600;28;20041;-76
2023/11/27 14:08:01;;;;;;;3.22;0.95;;;;;;;;;;5043179;28;20049;-75
2023/11/27 14:10:54;;;;;;;1.60;0.95;;;;;;;;;;5044722;28;20044;-76
2023/11/27 14:13:22;;;;;;;3.08;1.17;;;;;;;;;;5044352;28;20048;-75
2023/11/27 14:15:57;;;;;;;4.20;1.00;;;;;;;;;;5044184;28;20625;-76
2023/11/27 14:18:45;;;;;;;1.50;0.68;;;;;;;;;;5044491;28;20053;-75
2023/11/27 14:24:14;;;;;;;3.35;1.10;;;;;;;;;;5043998;28;20056;-75
2023/11/27 14:29:22;;;;;;;2.42;1.23;;;;;;;;;;5043981;28;20408;-76
2023/11/27 14:31:54;;;;;;;5.38;0.90;;;;;;;;;;5043785;28;20507;-77
2023/11/27 14:34:25;;;;;;;5.25;1.00;;;;;;;;;;5044763;28;20049;-75
2023/11/27 14:36:57;;;;;;;1.80;0.90;;;;;;;;;;5043463;28;20068;-75
2023/11/27 14:39:32;;;;;;;1.83;0.90;;;;;;;;;;5044068;28;20049;-76
2023/11/27 14:42:03;;;;;;;1.23;0.90;;;;;;;;;;5043927;28;20052;-76
2023/11/27 14:44:34;;;;;;;2.97;1.20;;;;;;;;;;5044035;28;20056;-77
2023/11/27 14:47:08;;;;;;;6.38;1.02;;;;;;;;;;5043614;28;20060;-76
2023/11/27 14:49:42;;;;;;;0.70;0.70;;;;;;;;;;5044954;28;20056;-76
2023/11/27 14:52:13;;;;;;;4.38;0.93;;;;;;;;;;5048187;28;20053;-74
2023/11/27 14:54:43;;;;;;;3.83;1.27;;;;;;;;;;5045336;28;20056;-76
2023/11/27 14:57:16;;;;;;;2.22;1.23;;;;;;;;;;5041369;28;20504;-75
2023/11/27 14:59:50;;;;;;;3.25;1.00;;;;;;;;;;5043370;28;20080;-79
2023/11/27 15:02:20;;;;;;;3.90;2.03;;;;;;;;;;5043283;28;21086;-75
2023/11/27 15:04:51;;;;;;;4.80;1.45;;;;;;;;;;5043422;28;20103;-75
2023/11/27 15:07:26;;;;;;;1.58;1.10;;;;;;;;;;5043071;28;20049;-75
2023/11/27 15:09:57;;;;;;;1.80;1.02;;;;;;;;;;5043136;28;20045;-76
2023/11/27 15:12:32;;;;;;;7.25;1.00;;;;;;;;;;5043104;28;20049;-75
2023/11/27 15:15:05;;;;;;;2.60;1.30;;;;;;;;;;5043248;28;20413;-76
2023/11/27 15:17:36;;;;;;;3.67;1.10;;;;;;;;;;5043307;28;20049;-75
2023/11/27 15:20:12;;;;;;;2.05;1.50;;;;;;;;;;5043037;28;20054;-75
2023/11/27 15:22:46;;;;;;;4.88;1.70;;;;;;;;;;5043404;28;20777;-75
2023/11/27 15:25:22;;;;;;;4.88;1.10;;;;;;;;;;5042979;28;20045;-75
2023/11/27 15:27:55;;;;;;;2.22;0.95;;;;;;;;;;5043238;28;20594;-76
2023/11/27 15:30:28;;;;;;;4.53;1.17;;;;;;;;;;5042602;28;20048;-75
2023/11/27 15:33:02;;;;;;;4.50;1.02;;;;;;;;;;5040954;28;20061;-74